createdAt,value
2023-04-19T05:03:18.716Z,25.00
2023-04-19T05:04:19.779Z,25.00
2023-04-19T05:05:18.746Z,25.00
2023-04-19T05:06:18.743Z,25.00
2023-04-19T05:07:18.787Z,25.00
2023-04-19T05:08:18.853Z,25.00
2023-04-19T05:09:18.849Z,0.00
2023-04-19T05:10:18.889Z,0.00
2023-04-19T05:11:19.901Z,0.00
2023-04-19T05:12:18.918Z,0.00
2023-04-19T05:13:19.952Z,0.00
2023-04-19T05:14:19.022Z,0.00
2023-04-19T05:15:19.063Z,0.00
2023-04-19T05:16:20.209Z,0.00
2023-04-19T05:17:19.198Z,0.00
2023-04-19T05:18:19.225Z,0.00
2023-04-19T05:19:19.331Z,0.00
2023-04-19T05:20:19.308Z,0.00
2023-04-19T05:21:19.369Z,0.00
2023-04-19T05:22:20.429Z,0.00
2023-04-19T05:23:20.442Z,14.61
2023-04-19T05:24:20.497Z,25.00
2023-04-19T05:25:19.520Z,25.01
2023-04-19T05:26:19.585Z,25.00
2023-04-19T05:27:20.644Z,25.00
2023-04-19T05:28:19.700Z,25.00
2023-04-19T05:29:19.725Z,26.49
2023-04-19T05:30:20.777Z,25.64
2023-04-19T05:31:19.879Z,25.78
2023-04-19T05:32:20.888Z,25.50
2023-04-19T05:33:20.929Z,25.00
2023-04-19T05:34:22.172Z,25.52
2023-04-19T05:35:20.028Z,25.28
2023-04-19T05:36:21.100Z,25.33
2023-04-19T05:37:20.116Z,27.17
2023-04-19T05:38:21.136Z,26.94
2023-04-19T05:39:20.189Z,28.09
2023-04-19T05:40:21.233Z,28.75
2023-04-19T05:41:21.430Z,35.56
2023-04-19T05:42:21.405Z,34.22
2023-04-19T05:43:21.387Z,34.89
2023-04-19T05:44:20.541Z,53.93
2023-04-19T05:45:21.414Z,45.84
2023-04-19T05:46:20.477Z,51.51
2023-04-19T05:47:20.495Z,51.09
2023-04-19T05:48:21.474Z,46.79
2023-04-19T05:49:21.515Z,45.56
2023-04-19T05:50:21.594Z,45.19
2023-04-19T05:51:20.528Z,43.92
2023-04-19T05:52:21.646Z,44.70
2023-04-19T05:53:21.599Z,47.21
2023-04-19T05:54:21.655Z,45.51
2023-04-19T05:55:20.592Z,45.89
2023-04-19T05:56:21.651Z,46.91
2023-04-19T05:57:21.635Z,45.34
2023-04-19T05:58:21.675Z,45.02
2023-04-19T05:59:21.690Z,43.14
2023-04-19T06:00:20.734Z,47.61
2023-04-19T06:01:21.769Z,60.65
2023-04-19T06:02:21.297Z,52.95
2023-04-19T06:03:21.037Z,53.70
2023-04-19T06:04:21.612Z,50.48
2023-04-19T06:05:22.072Z,64.51
2023-04-19T06:06:22.128Z,61.20
2023-04-19T06:07:30.935Z,55.15
2023-04-19T06:08:22.041Z,55.35
2023-04-19T06:09:22.064Z,52.63
2023-04-19T06:10:22.044Z,50.02
2023-04-19T06:11:26.964Z,59.57
2023-04-19T06:12:22.065Z,55.43
2023-04-19T06:13:21.059Z,55.51
2023-04-19T06:14:22.024Z,52.58
2023-04-19T06:15:22.001Z,54.99
2023-04-19T06:16:22.045Z,49.10
2023-04-19T06:17:22.012Z,48.33
2023-04-19T06:18:21.988Z,49.80
2023-04-19T06:19:21.997Z,46.77
2023-04-19T06:20:21.997Z,48.73
2023-04-19T06:21:21.007Z,64.54
2023-04-19T06:22:21.306Z,59.92
2023-04-19T06:23:20.949Z,54.26
2023-04-19T06:24:20.955Z,49.26
2023-04-19T06:25:21.937Z,48.98
2023-04-19T06:26:20.932Z,47.30
2023-04-19T06:27:21.938Z,45.96
2023-04-19T06:28:21.916Z,41.55
2023-04-19T06:29:20.922Z,39.86
2023-04-19T06:30:21.892Z,37.36
2023-04-19T06:31:21.943Z,35.18
2023-04-19T06:32:20.932Z,36.38
2023-04-19T06:33:21.884Z,33.62
2023-04-19T06:34:20.896Z,33.97
2023-04-19T06:35:21.929Z,32.06
2023-04-19T06:36:21.974Z,32.30
2023-04-19T06:37:21.066Z,33.17
2023-04-19T06:38:22.073Z,32.60
2023-04-19T06:39:22.087Z,28.66
2023-04-19T06:40:21.118Z,29.69
2023-04-19T06:41:21.183Z,29.32
2023-04-19T06:42:21.186Z,27.76
2023-04-19T06:43:22.218Z,30.95
2023-04-19T06:44:22.260Z,26.22
2023-04-19T06:45:22.299Z,28.15
2023-04-19T06:46:21.406Z,26.02
2023-04-19T06:47:21.382Z,28.18
2023-04-19T06:48:22.391Z,30.46
2023-04-19T06:49:22.432Z,27.73
2023-04-19T06:50:22.510Z,30.15
2023-04-19T06:51:22.522Z,49.92
2023-04-19T06:52:22.675Z,43.47
2023-04-19T06:53:22.525Z,44.40
2023-04-19T06:54:22.573Z,38.93
2023-04-19T06:55:22.630Z,38.83
2023-04-19T06:56:21.608Z,39.51
2023-04-19T06:57:22.184Z,41.70
2023-04-19T06:58:21.726Z,40.79
2023-04-19T06:59:21.761Z,40.86
2023-04-19T07:00:22.832Z,43.47
2023-04-19T07:01:21.886Z,42.19
2023-04-19T07:02:22.092Z,41.55
2023-04-19T07:03:22.077Z,43.24
2023-04-19T07:04:22.389Z,43.13
2023-04-19T07:05:21.978Z,43.26
2023-04-19T07:06:23.022Z,42.06
2023-04-19T07:07:23.056Z,40.17
2023-04-19T07:08:23.049Z,43.42
2023-04-19T07:09:23.093Z,40.27
2023-04-19T07:10:23.132Z,43.15
2023-04-19T07:11:23.123Z,39.02
2023-04-19T07:12:22.158Z,43.01
2023-04-19T07:13:23.327Z,43.85
2023-04-19T07:14:23.181Z,43.83
2023-04-19T07:15:22.199Z,39.59
2023-04-19T07:16:23.289Z,42.02
2023-04-19T07:17:22.251Z,43.94
2023-04-19T07:18:22.238Z,43.40
2023-04-19T07:19:22.236Z,41.83
2023-04-19T07:20:23.280Z,43.66
2023-04-19T07:21:23.262Z,42.93
2023-04-19T07:22:23.315Z,44.17
2023-04-19T07:23:22.302Z,44.21
2023-04-19T07:24:22.331Z,43.11
2023-04-19T07:25:23.582Z,43.58
2023-04-19T07:26:23.438Z,50.98
2023-04-19T07:27:22.444Z,51.75
2023-04-19T07:28:22.454Z,51.88
2023-04-19T07:29:23.455Z,53.37
2023-04-19T07:30:23.460Z,88.13
2023-04-19T07:31:22.460Z,110.61
2023-04-19T07:32:22.543Z,122.02
2023-04-19T07:33:25.958Z,117.31
2023-04-19T07:34:22.493Z,99.96
2023-04-19T07:35:22.498Z,92.82
2023-04-19T07:36:22.481Z,95.59
2023-04-19T07:37:22.707Z,83.21
2023-04-19T07:38:23.589Z,76.53
2023-04-19T07:39:23.872Z,72.06
2023-04-19T07:40:23.694Z,69.62
2023-04-19T07:41:23.725Z,64.06
2023-04-19T07:42:22.820Z,62.15
2023-04-19T07:43:23.813Z,60.63
2023-04-19T07:44:23.845Z,60.13
2023-04-19T07:45:22.911Z,59.33
2023-04-19T07:46:24.052Z,55.77
2023-04-19T07:47:24.720Z,56.49
2023-04-19T07:48:22.983Z,61.13
2023-04-19T07:49:24.017Z,59.86
2023-04-19T07:50:24.040Z,57.61
2023-04-19T07:51:23.056Z,79.70
2023-04-19T07:52:23.206Z,74.07
2023-04-19T07:53:23.172Z,75.26
2023-04-19T07:54:24.160Z,76.17
2023-04-19T07:55:24.774Z,77.14
2023-04-19T07:56:24.234Z,75.81
2023-04-19T07:57:24.194Z,80.96
2023-04-19T07:58:24.237Z,79.04
2023-04-19T07:59:24.246Z,79.99
2023-04-19T08:00:24.271Z,81.00
2023-04-19T08:01:24.298Z,80.83
2023-04-19T08:02:23.637Z,82.77
2023-04-19T08:03:24.540Z,82.62
2023-04-19T08:04:25.113Z,83.95
2023-04-19T08:05:24.476Z,83.09
2023-04-19T08:06:23.385Z,83.68
2023-04-19T08:07:24.412Z,87.33
2023-04-19T08:08:23.396Z,88.99
2023-04-19T08:09:23.448Z,86.17
2023-04-19T08:10:24.435Z,88.67
2023-04-19T08:11:24.506Z,89.43
2023-04-19T08:12:35.134Z,90.75
2023-04-19T08:13:24.496Z,91.02
2023-04-19T08:14:37.246Z,91.03
2023-04-19T08:16:05.110Z,91.06
2023-04-19T08:17:27.980Z,91.43
2023-04-19T08:18:24.590Z,91.58
2023-04-19T08:19:24.452Z,93.47
2023-04-19T08:20:24.505Z,94.79
2023-04-19T08:21:31.285Z,98.34
2023-04-19T08:22:24.455Z,91.39
2023-04-19T08:23:27.712Z,93.17
2023-04-19T08:24:24.437Z,91.54
2023-04-19T08:25:24.427Z,93.00
2023-04-19T08:26:24.423Z,94.80
2023-04-19T08:27:24.424Z,100.73
2023-04-19T08:28:24.450Z,105.93
2023-04-19T08:29:24.410Z,105.64
2023-04-19T08:30:24.416Z,104.85
2023-04-19T08:31:24.507Z,106.31
2023-04-19T08:32:23.401Z,105.55
2023-04-19T08:33:24.423Z,110.29
2023-04-19T08:34:23.361Z,110.24
2023-04-19T08:35:24.449Z,106.99
2023-04-19T08:36:35.401Z,110.66
2023-04-19T08:37:24.547Z,110.69
2023-04-19T08:38:23.497Z,108.74
2023-04-19T08:39:32.374Z,106.47
2023-04-19T08:40:24.635Z,106.44
2023-04-19T08:41:23.455Z,102.04
2023-04-19T08:42:35.821Z,98.98
2023-04-19T08:43:24.722Z,107.60
2023-04-19T08:44:34.995Z,101.41
2023-04-19T08:45:27.896Z,66.37
2023-04-19T08:46:23.443Z,36.29
2023-04-19T08:47:31.235Z,25.10
2023-04-19T08:48:24.405Z,50.90
2023-04-19T08:49:24.378Z,71.16
2023-04-19T08:50:32.597Z,27.03
2023-04-19T08:51:24.359Z,0.00
2023-04-19T08:52:24.362Z,0.00
2023-04-19T08:53:25.922Z,0.00
2023-04-19T08:56:10.624Z,25.00
2023-04-19T08:56:58.182Z,25.00
2023-04-19T08:57:57.402Z,25.00
2023-04-19T08:59:11.489Z,25.00
2023-04-19T08:59:58.193Z,25.00
2023-04-19T09:00:57.147Z,25.00
2023-04-19T09:01:58.979Z,25.00
2023-04-19T09:02:58.340Z,25.00
2023-04-19T09:04:07.404Z,25.00
2023-04-19T09:04:59.002Z,25.00
2023-04-19T09:05:58.444Z,25.00
2023-04-19T09:06:57.100Z,25.00
2023-04-19T09:07:57.113Z,25.00
2023-04-19T09:08:58.113Z,25.00
2023-04-19T09:10:02.871Z,25.00
2023-04-19T09:10:58.090Z,25.00
2023-04-19T09:11:58.097Z,25.00
2023-04-19T09:12:58.087Z,25.00
2023-04-19T09:13:57.199Z,25.00
2023-04-19T09:15:01.632Z,25.00
2023-04-19T09:15:58.270Z,25.00
2023-04-19T09:16:58.261Z,25.00
2023-04-19T09:17:58.697Z,25.00
2023-04-19T09:19:05.436Z,25.00
2023-04-19T09:19:58.333Z,25.00
2023-04-19T09:20:58.314Z,25.00
2023-04-19T09:21:58.298Z,25.00
2023-04-19T09:22:58.301Z,25.00
2023-04-19T09:23:58.294Z,25.00
2023-04-19T09:26:58.313Z,28.08
2023-04-19T09:27:58.263Z,16.26
2023-04-19T09:28:58.267Z,29.67
2023-04-19T09:29:58.272Z,43.89
2023-04-19T09:31:05.786Z,40.95
2023-04-19T09:31:58.334Z,32.57
2023-04-19T09:32:59.334Z,34.80
2023-04-19T09:33:58.282Z,39.96
2023-04-19T09:34:58.320Z,43.45
2023-04-19T09:35:58.226Z,48.08
2023-04-19T09:37:09.047Z,42.28
2023-04-19T09:38:05.434Z,42.39
2023-04-19T09:38:58.247Z,42.65
2023-04-19T09:39:58.217Z,42.99
2023-04-19T09:40:58.215Z,42.85
2023-04-19T09:41:57.214Z,43.99
2023-04-19T09:43:08.747Z,45.33
2023-04-19T09:44:13.047Z,42.57
2023-04-19T09:45:57.172Z,42.60
2023-04-19T09:46:57.186Z,53.81
2023-04-19T09:47:58.189Z,53.67
2023-04-19T09:48:58.718Z,50.40
2023-04-19T09:49:58.544Z,61.53
2023-04-19T09:51:02.427Z,81.17
2023-04-19T09:51:58.167Z,81.83
2023-04-19T09:52:58.100Z,85.44
2023-04-19T09:53:58.094Z,90.22
2023-04-19T09:54:58.105Z,74.19
2023-04-19T09:56:01.210Z,75.94
2023-04-19T09:57:00.177Z,81.45
2023-04-19T09:57:58.074Z,82.15
2023-04-19T09:59:04.903Z,85.92
2023-04-19T09:59:58.123Z,82.59
2023-04-19T10:01:10.764Z,86.48
2023-04-19T10:01:58.145Z,82.88
2023-04-19T10:02:57.166Z,89.29
2023-04-19T10:05:11.198Z,125.29
2023-04-19T10:05:58.194Z,84.01
2023-04-19T10:07:19.461Z,93.35
2023-04-19T10:07:59.962Z,83.79
2023-04-19T10:08:58.026Z,84.19
2023-04-19T10:10:02.247Z,94.21
2023-04-19T10:10:59.185Z,84.12
2023-04-19T10:12:03.723Z,84.64
2023-04-19T10:13:15.296Z,84.39
2023-04-19T10:13:57.963Z,84.31
2023-04-19T10:14:57.952Z,95.59
2023-04-19T10:16:01.773Z,114.43
2023-04-19T10:16:57.978Z,84.68
2023-04-19T10:17:58.017Z,96.62
2023-04-19T10:18:57.956Z,115.62
2023-04-19T10:19:56.960Z,144.88
2023-04-19T10:20:57.922Z,181.18
2023-04-19T10:21:58.042Z,183.81
2023-04-19T10:22:57.911Z,182.48
2023-04-19T10:23:56.933Z,181.91
2023-04-19T10:24:57.899Z,183.09
2023-04-19T10:25:56.915Z,184.35
2023-04-19T10:26:56.916Z,180.50
2023-04-19T10:27:56.901Z,176.40
2023-04-19T10:28:56.931Z,183.99
2023-04-19T10:29:56.867Z,178.74
2023-04-19T10:30:56.886Z,179.19
2023-04-19T10:31:57.992Z,179.51
2023-04-19T10:32:58.010Z,171.70
2023-04-19T10:33:58.125Z,177.56
2023-04-19T10:34:57.085Z,175.35
2023-04-19T10:35:58.147Z,172.90
2023-04-19T10:36:57.194Z,167.39
2023-04-19T10:37:58.371Z,171.60
2023-04-19T10:38:57.294Z,176.88
2023-04-19T10:39:57.304Z,172.23
2023-04-19T10:40:58.354Z,173.30
2023-04-19T10:41:58.416Z,175.26
2023-04-19T10:42:57.455Z,175.29
2023-04-19T10:43:57.937Z,176.13
2023-04-19T10:44:57.559Z,174.70
2023-04-19T10:45:58.599Z,177.93
2023-04-19T10:46:57.631Z,184.91
2023-04-19T10:47:58.738Z,192.83
2023-04-19T10:48:58.659Z,192.04
2023-04-19T10:49:58.684Z,200.41
2023-04-19T10:50:57.688Z,202.66
2023-04-19T10:51:58.719Z,203.51
2023-04-19T10:52:57.773Z,207.97
2023-04-19T10:53:59.036Z,213.65
2023-04-19T10:54:58.870Z,209.23
2023-04-19T10:55:57.905Z,209.91
2023-04-19T10:56:58.959Z,205.86
2023-04-19T10:57:58.008Z,205.11
2023-04-19T10:58:58.044Z,203.91
2023-04-19T10:59:59.088Z,203.89
2023-04-19T11:00:58.204Z,198.69
2023-04-19T11:01:59.322Z,192.81
2023-04-19T11:02:59.393Z,192.93
2023-04-19T11:03:58.359Z,193.32
2023-04-19T11:04:59.253Z,187.11
2023-04-19T11:05:59.353Z,191.38
2023-04-19T11:06:59.321Z,190.56
2023-04-19T11:07:59.338Z,190.52
2023-04-19T11:08:59.401Z,188.98
2023-04-19T11:09:59.432Z,191.82
2023-04-19T11:10:58.411Z,194.86
2023-04-19T11:11:58.433Z,197.47
2023-04-19T11:12:59.492Z,197.04
2023-04-19T11:13:58.546Z,196.32
2023-04-19T11:14:58.566Z,197.20
2023-04-19T11:15:59.606Z,193.94
2023-04-19T11:16:59.621Z,197.15
2023-04-19T11:18:11.957Z,194.55
2023-04-19T11:18:59.598Z,194.89
2023-04-19T11:19:58.583Z,196.18
2023-04-19T11:20:58.589Z,195.43
2023-04-19T11:21:59.591Z,197.34
2023-04-19T11:22:59.725Z,196.33
2023-04-19T11:23:59.564Z,197.50
2023-04-19T11:24:59.544Z,198.92
2023-04-19T11:26:00.490Z,198.39
2023-04-19T11:26:59.550Z,198.13
2023-04-19T11:27:59.533Z,200.16
2023-04-19T11:28:59.539Z,200.41
2023-04-19T11:29:59.538Z,199.75
2023-04-19T11:30:58.557Z,202.33
2023-04-19T11:31:59.505Z,204.23
2023-04-19T11:32:58.585Z,208.13
2023-04-19T11:33:59.505Z,207.65
2023-04-19T11:34:59.510Z,212.46
2023-04-19T11:35:58.496Z,212.56
2023-04-19T11:36:59.504Z,218.11
2023-04-19T11:37:58.485Z,217.76
2023-04-19T11:38:59.465Z,221.62
2023-04-19T11:39:58.530Z,223.15
2023-04-19T11:40:59.554Z,217.25
2023-04-19T11:41:59.593Z,221.11
2023-04-19T11:42:58.633Z,218.15
2023-04-19T11:43:59.665Z,218.90
2023-04-19T11:44:59.725Z,219.16
2023-04-19T11:45:58.774Z,218.39
2023-04-19T11:46:59.048Z,219.45
2023-04-19T11:47:59.910Z,217.45
2023-04-19T11:48:58.996Z,215.99
2023-04-19T11:49:59.002Z,216.52
2023-04-19T11:51:00.042Z,215.12
2023-04-19T11:52:00.104Z,213.23
2023-04-19T11:53:00.165Z,215.38
2023-04-19T11:54:00.205Z,213.19
2023-04-19T11:54:59.156Z,213.67
2023-04-19T11:55:59.187Z,211.99
2023-04-19T11:56:59.224Z,212.90
2023-04-19T11:58:00.275Z,215.85
2023-04-19T11:58:59.267Z,216.85
2023-04-19T12:00:00.264Z,213.97
2023-04-19T12:01:00.276Z,212.10
2023-04-19T12:01:59.319Z,212.95
2023-04-19T12:02:59.427Z,216.27
2023-04-19T12:03:59.484Z,222.09
2023-04-19T12:04:59.555Z,216.21
2023-04-19T12:05:59.655Z,214.99
2023-04-19T12:06:59.420Z,218.84
2023-04-19T12:08:00.439Z,218.53
2023-04-19T12:09:00.461Z,218.70
2023-04-19T12:10:00.464Z,218.09
2023-04-19T12:10:59.475Z,219.63
2023-04-19T12:12:00.561Z,218.69
2023-04-19T12:13:00.557Z,218.75
2023-04-19T12:13:59.652Z,216.84
2023-04-19T12:15:00.616Z,218.75
2023-04-19T12:16:00.600Z,218.71
2023-04-19T12:16:59.714Z,215.70
2023-04-19T12:18:00.649Z,217.17
2023-04-19T12:19:00.641Z,215.87
2023-04-19T12:20:00.650Z,214.06
2023-04-19T12:21:01.350Z,214.28
2023-04-19T12:22:00.740Z,216.72
2023-04-19T12:23:00.775Z,217.46
2023-04-19T12:23:59.860Z,217.68
2023-04-19T12:25:00.881Z,214.95
2023-04-19T12:25:59.923Z,217.23
2023-04-19T12:27:00.990Z,215.78
2023-04-19T12:28:00.005Z,213.48
2023-04-19T12:29:00.044Z,216.03
2023-04-19T12:30:01.219Z,217.03
2023-04-19T12:31:00.130Z,212.90
2023-04-19T12:32:01.172Z,214.14
2023-04-19T12:33:01.206Z,215.52
2023-04-19T12:34:00.278Z,213.47
2023-04-19T12:35:01.305Z,214.50
2023-04-19T12:36:00.334Z,212.81
2023-04-19T12:37:00.382Z,213.00
2023-04-19T12:38:01.415Z,210.38
2023-04-19T12:39:01.492Z,212.88
2023-04-19T12:40:00.522Z,209.14
2023-04-19T12:41:01.544Z,213.05
2023-04-19T12:42:01.574Z,211.99
2023-04-19T12:43:01.582Z,211.10
2023-04-19T12:44:00.655Z,215.28
2023-04-19T12:45:00.625Z,212.45
2023-04-19T12:46:00.771Z,207.84
2023-04-19T12:47:01.683Z,210.82
2023-04-19T12:48:01.715Z,211.94
2023-04-19T12:49:00.760Z,208.95
2023-04-19T12:50:01.766Z,214.14
2023-04-19T12:51:01.810Z,209.99
2023-04-19T12:52:00.766Z,214.43
2023-04-19T12:53:00.758Z,212.94
2023-04-19T12:54:01.825Z,210.73
2023-04-19T12:55:01.784Z,211.29
2023-04-19T12:56:01.826Z,214.01
2023-04-19T12:57:02.907Z,213.02
2023-04-19T12:58:01.998Z,213.55
2023-04-19T12:59:01.002Z,210.10
2023-04-19T13:00:01.020Z,212.34
2023-04-19T13:01:01.109Z,212.59
2023-04-19T13:02:02.334Z,210.34
2023-04-19T13:03:02.223Z,212.73
2023-04-19T13:04:01.480Z,210.75
2023-04-19T13:05:01.200Z,210.48
2023-04-19T13:06:02.141Z,210.88
2023-04-19T13:07:02.183Z,210.24
2023-04-19T13:08:02.196Z,212.39
2023-04-19T13:09:01.716Z,209.27
2023-04-19T13:10:01.233Z,214.11
2023-04-19T13:11:02.232Z,208.30
2023-04-19T13:12:02.268Z,210.18
2023-04-19T13:13:02.273Z,208.39
2023-04-19T13:14:02.321Z,211.62
2023-04-19T13:15:03.660Z,209.06
2023-04-19T13:16:02.360Z,208.90
2023-04-19T13:17:01.335Z,210.59
2023-04-19T13:18:01.384Z,204.57
2023-04-19T13:19:02.291Z,204.75
2023-04-19T13:20:02.303Z,206.65
2023-04-19T13:21:02.279Z,202.53
2023-04-19T13:22:02.285Z,202.93
2023-04-19T13:23:02.290Z,204.77
2023-04-19T13:24:02.264Z,202.35
2023-04-19T13:25:02.270Z,202.37
2023-04-19T13:26:02.303Z,199.61
2023-04-19T13:27:02.356Z,200.77
2023-04-19T13:28:01.262Z,200.88
2023-04-19T13:29:01.234Z,201.68
2023-04-19T13:30:02.246Z,202.54
2023-04-19T13:31:02.328Z,201.30
2023-04-19T13:32:02.219Z,198.14
2023-04-19T13:33:01.306Z,200.15
2023-04-19T13:34:02.236Z,200.37
2023-04-19T13:35:02.241Z,202.20
2023-04-19T13:36:02.205Z,201.18
2023-04-19T13:37:02.196Z,196.89
2023-04-19T13:38:02.199Z,197.25
2023-04-19T13:39:02.248Z,197.26
2023-04-19T13:40:17.478Z,196.61
2023-04-19T13:41:02.175Z,196.95
2023-04-19T13:42:01.154Z,197.46
2023-04-19T13:43:02.188Z,197.40
2023-04-19T13:44:01.150Z,197.50
2023-04-19T13:45:02.173Z,200.08
2023-04-19T13:46:02.149Z,199.82
2023-04-19T13:47:02.178Z,196.52
2023-04-19T13:48:02.238Z,197.64
2023-04-19T13:49:02.111Z,195.85
2023-04-19T13:50:02.197Z,195.95
2023-04-19T13:51:02.104Z,193.26
2023-04-19T13:52:02.132Z,194.13
2023-04-19T13:53:02.100Z,197.10
2023-04-19T13:54:01.082Z,194.27
2023-04-19T13:55:02.101Z,191.95
2023-04-19T13:56:02.121Z,190.42
2023-04-19T13:57:02.069Z,193.89
2023-04-19T13:58:02.118Z,191.77
2023-04-19T13:59:01.063Z,194.49
2023-04-19T14:00:01.063Z,192.91
2023-04-19T14:01:02.125Z,188.42
2023-04-19T14:02:01.087Z,191.12
2023-04-19T14:03:02.271Z,192.49
2023-04-19T14:04:02.494Z,191.08
2023-04-19T14:05:02.049Z,192.55
2023-04-19T14:06:02.029Z,191.54
2023-04-19T14:07:01.995Z,191.50
2023-04-19T14:08:02.131Z,190.61
2023-04-19T14:09:00.995Z,188.59
2023-04-19T14:10:02.031Z,188.23
2023-04-19T14:11:01.974Z,190.75
2023-04-19T14:12:01.966Z,187.37
2023-04-19T14:13:00.955Z,191.51
2023-04-19T14:14:01.957Z,189.76
2023-04-19T14:15:01.962Z,191.23
2023-04-19T14:16:00.958Z,192.40
2023-04-19T14:17:02.002Z,186.06
2023-04-19T14:18:01.998Z,186.88
2023-04-19T14:19:01.924Z,185.55
2023-04-19T14:20:00.926Z,191.15
2023-04-19T14:21:00.906Z,188.18
2023-04-19T14:22:01.933Z,191.81
2023-04-19T14:23:01.922Z,187.82
2023-04-19T14:24:00.911Z,187.15
2023-04-19T14:25:00.947Z,187.40
2023-04-19T14:26:02.032Z,188.57
2023-04-19T14:28:00.955Z,188.69
2023-04-19T14:29:01.965Z,187.68
2023-04-19T14:30:01.940Z,192.36
2023-04-19T14:31:02.008Z,190.39
2023-04-19T14:32:13.499Z,191.56
2023-04-19T14:33:02.005Z,191.93
2023-04-19T14:34:01.950Z,192.15
2023-04-19T14:35:00.930Z,192.46
2023-04-19T14:36:01.919Z,193.31
2023-04-19T14:37:01.902Z,191.73
2023-04-19T14:38:01.960Z,193.47
2023-04-19T14:39:01.886Z,192.20
2023-04-19T14:40:01.901Z,192.59
2023-04-19T14:41:01.903Z,188.34
2023-04-19T14:42:01.868Z,187.74
2023-04-19T14:43:01.912Z,190.13
2023-04-19T14:44:00.862Z,188.41
2023-04-19T14:45:00.858Z,189.62
2023-04-19T14:46:00.938Z,188.09
2023-04-19T14:47:01.827Z,190.23
2023-04-19T14:48:00.926Z,187.53
2023-04-19T14:49:00.820Z,187.80
2023-04-19T14:50:00.830Z,186.78
2023-04-19T14:51:00.792Z,186.16
2023-04-19T14:52:00.789Z,189.46
2023-04-19T14:53:00.797Z,190.05
2023-04-19T14:54:00.798Z,188.57
2023-04-19T14:55:01.773Z,188.20
2023-04-19T14:56:01.761Z,187.43
2023-04-19T14:57:00.801Z,187.98
2023-04-19T14:58:01.766Z,189.59
2023-04-19T14:59:00.749Z,189.47
2023-04-19T15:00:01.855Z,190.03
2023-04-19T15:01:01.779Z,189.93
2023-04-19T15:02:00.766Z,187.18
2023-04-19T15:03:00.817Z,188.06
2023-04-19T15:04:02.035Z,188.19
2023-04-19T15:05:02.117Z,187.91
2023-04-19T15:06:00.699Z,187.71
2023-04-19T15:07:01.703Z,188.89
2023-04-19T15:08:01.709Z,186.46
2023-04-19T15:09:00.703Z,186.67
2023-04-19T15:10:00.747Z,187.64
2023-04-19T15:11:01.673Z,185.99
2023-04-19T15:12:00.687Z,186.86
2023-04-19T15:13:00.665Z,186.71
2023-04-19T15:14:00.661Z,187.25
2023-04-19T15:15:00.654Z,185.89
2023-04-19T15:16:03.093Z,188.55
2023-04-19T15:17:01.658Z,188.41
2023-04-19T15:18:01.675Z,186.34
2023-04-19T15:19:01.626Z,184.68
2023-04-19T15:20:00.738Z,185.51
2023-04-19T15:21:01.613Z,185.88
2023-04-19T15:22:00.611Z,183.65
2023-04-19T15:23:01.622Z,206.92
2023-04-19T15:24:00.596Z,214.96
2023-04-19T15:25:01.610Z,211.54
2023-04-19T15:26:01.661Z,215.55
2023-04-19T15:27:00.593Z,243.12
2023-04-19T15:28:00.595Z,240.73
2023-04-19T15:29:01.579Z,232.32
2023-04-19T15:30:01.632Z,231.19
